createdAt,value
2023-10-10T00:02:44.303Z,15.99
2023-10-10T00:05:37.826Z,16.08
2023-10-10T00:08:34.925Z,15.65
2023-10-10T00:11:27.595Z,15.92
2023-10-10T00:14:20.517Z,15.98
2023-10-10T00:17:11.763Z,15.88
2023-10-10T00:20:17.453Z,15.79
2023-10-10T00:23:12.239Z,15.87
2023-10-10T00:26:02.529Z,15.88
2023-10-10T00:28:57.662Z,15.86
2023-10-10T00:31:59.703Z,15.92
2023-10-10T00:34:55.096Z,15.93
2023-10-10T00:37:46.478Z,15.87
2023-10-10T00:40:40.674Z,15.94
2023-10-10T00:43:32.477Z,16.04
2023-10-10T00:46:25.997Z,16.04
2023-10-10T00:49:18.442Z,16.07
2023-10-10T00:52:14.741Z,16.27
2023-10-10T00:55:06.352Z,16.02
2023-10-10T00:58:00.438Z,15.96
2023-10-10T01:00:54.252Z,16.05
2023-10-10T01:03:50.825Z,15.94
2023-10-10T01:06:41.445Z,15.74
2023-10-10T01:09:35.396Z,16.09
2023-10-10T01:12:26.977Z,15.74
2023-10-10T01:15:26.613Z,15.85
2023-10-10T01:18:17.267Z,15.79
2023-10-10T01:21:10.558Z,15.59
2023-10-10T01:24:13.061Z,15.47
2023-10-10T01:27:18.317Z,15.43
2023-10-10T01:30:19.285Z,15.57
2023-10-10T01:33:11.232Z,15.22
2023-10-10T01:36:04.418Z,15.33
2023-10-10T01:39:21.230Z,15.14
2023-10-10T01:42:14.001Z,15.17
2023-10-10T01:45:09.720Z,15.12
2023-10-10T01:48:04.449Z,15.26
2023-10-10T01:50:55.430Z,15.15
2023-10-10T01:53:45.776Z,15.09
2023-10-10T01:56:39.811Z,15.21
2023-10-10T01:59:37.057Z,15.11
2023-10-10T02:02:28.706Z,15.18
2023-10-10T02:05:30.930Z,15.21
2023-10-10T02:08:23.684Z,15.08
2023-10-10T02:11:15.358Z,14.98
2023-10-10T02:14:12.560Z,15.09
2023-10-10T02:17:10.647Z,15.07
2023-10-10T02:20:19.958Z,15.06
2023-10-10T02:23:25.659Z,15.12
2023-10-10T02:26:25.559Z,15.07
2023-10-10T02:29:22.413Z,15.05
2023-10-10T02:32:14.304Z,15.22
2023-10-10T02:35:27.115Z,15.13
2023-10-10T02:38:18.339Z,14.94
2023-10-10T02:41:23.964Z,15.00
2023-10-10T02:44:27.482Z,15.14
2023-10-10T02:47:32.559Z,15.06
2023-10-10T02:50:35.714Z,15.12
2023-10-10T02:53:26.096Z,15.08
2023-10-10T02:56:21.461Z,15.17
2023-10-10T02:59:12.316Z,15.03
2023-10-10T03:02:10.476Z,15.37
2023-10-10T03:05:16.862Z,15.48
2023-10-10T03:08:13.877Z,15.61
2023-10-10T03:11:16.055Z,15.64
2023-10-10T03:14:09.218Z,15.88
2023-10-10T03:17:11.127Z,15.90
2023-10-10T03:20:14.741Z,15.67
2023-10-10T03:23:24.964Z,15.66
2023-10-10T03:26:21.081Z,15.40
2023-10-10T03:29:13.117Z,15.47
2023-10-10T03:32:17.636Z,15.48
2023-10-10T03:35:22.012Z,15.71
2023-10-10T03:38:32.476Z,15.76
2023-10-10T03:41:42.287Z,15.89
2023-10-10T03:44:45.019Z,15.90
2023-10-10T03:48:02.501Z,15.96
2023-10-10T03:51:07.860Z,15.95
2023-10-10T03:54:12.609Z,16.04
2023-10-10T03:57:15.838Z,16.05
2023-10-10T04:00:19.090Z,16.32
2023-10-10T04:03:22.223Z,15.87
2023-10-10T04:06:27.754Z,16.21
2023-10-10T04:09:39.030Z,16.37
2023-10-10T04:12:41.737Z,16.71
2023-10-10T04:15:47.599Z,16.68
2023-10-10T04:18:59.780Z,16.41
2023-10-10T04:22:05.111Z,16.28
2023-10-10T04:25:07.915Z,16.00
2023-10-10T04:28:10.623Z,16.00
2023-10-10T04:31:13.380Z,16.01
2023-10-10T04:34:16.235Z,16.04
2023-10-10T04:37:21.593Z,16.09
2023-10-10T04:40:25.113Z,16.54
2023-10-10T04:43:27.799Z,15.96
2023-10-10T04:46:31.328Z,16.01
2023-10-10T04:49:34.126Z,16.36
2023-10-10T04:52:39.389Z,16.06
2023-10-10T04:55:42.099Z,15.99
2023-10-10T04:58:44.837Z,16.29
2023-10-10T05:01:56.006Z,15.97
2023-10-10T05:04:58.702Z,16.07
2023-10-10T05:08:06.450Z,16.11
2023-10-10T05:11:09.417Z,16.15
2023-10-10T05:14:12.138Z,16.18
2023-10-10T05:17:14.965Z,16.57
2023-10-10T05:20:20.167Z,16.42
2023-10-10T05:23:25.579Z,16.56
2023-10-10T05:26:20.561Z,16.31
2023-10-10T05:29:12.001Z,16.36
2023-10-10T05:32:09.645Z,16.37
2023-10-10T05:35:01.647Z,16.39
2023-10-10T05:37:53.361Z,16.14
2023-10-10T05:40:48.678Z,15.97
2023-10-10T05:43:38.973Z,16.14
2023-10-10T05:46:31.935Z,16.41
2023-10-10T05:49:22.766Z,16.33
2023-10-10T05:52:13.579Z,16.21
2023-10-10T05:55:04.073Z,16.16
2023-10-10T05:57:57.322Z,16.02
2023-10-10T06:00:50.891Z,16.36
2023-10-10T06:03:41.445Z,16.12
2023-10-10T06:06:33.221Z,16.40
2023-10-10T06:09:28.119Z,16.05
2023-10-10T06:12:18.358Z,15.57
2023-10-10T06:15:18.235Z,15.91
2023-10-10T06:18:13.961Z,16.12
2023-10-10T06:21:10.278Z,16.52
2023-10-10T06:24:02.078Z,16.34
2023-10-10T06:26:52.374Z,16.39
2023-10-10T06:29:43.370Z,16.69
2023-10-10T06:32:37.248Z,17.16
2023-10-10T06:35:37.477Z,17.04
2023-10-10T06:38:27.920Z,17.24
2023-10-10T06:41:23.781Z,17.09
2023-10-10T06:44:15.445Z,16.88
2023-10-10T06:47:13.776Z,16.62
2023-10-10T06:50:12.458Z,16.43
2023-10-10T06:53:03.141Z,16.45
2023-10-10T06:55:53.768Z,16.79
2023-10-10T06:58:44.739Z,16.66
2023-10-10T07:01:34.951Z,16.64
2023-10-10T07:04:28.835Z,16.90
2023-10-10T07:07:22.902Z,17.10
2023-10-10T07:10:25.963Z,16.75
2023-10-10T07:13:20.318Z,17.47
2023-10-10T07:16:10.592Z,17.13
2023-10-10T07:19:20.254Z,17.39
2023-10-10T07:22:09.691Z,17.58
2023-10-10T07:25:08.615Z,18.03
2023-10-10T07:28:02.216Z,17.58
2023-10-10T07:30:52.460Z,17.50
2023-10-10T07:33:44.961Z,17.64
2023-10-10T07:36:35.406Z,17.30
2023-10-10T07:39:37.931Z,17.49
2023-10-10T07:42:32.410Z,17.39
2023-10-10T07:45:34.784Z,17.26
2023-10-10T07:48:37.793Z,16.95
2023-10-10T07:51:36.265Z,17.47
2023-10-10T07:54:40.888Z,17.38
2023-10-10T07:57:54.174Z,17.95
2023-10-10T08:00:46.084Z,17.80
2023-10-10T08:03:36.394Z,17.19
2023-10-10T08:06:27.332Z,17.51
2023-10-10T08:09:24.783Z,18.12
2023-10-10T08:12:15.108Z,18.30
2023-10-10T08:15:20.723Z,18.95
2023-10-10T08:18:11.253Z,18.30
2023-10-10T08:21:12.208Z,18.74
2023-10-10T08:24:02.435Z,18.94
2023-10-10T08:26:53.120Z,19.25
2023-10-10T08:29:43.822Z,19.04
2023-10-10T08:32:36.800Z,18.68
2023-10-10T08:35:31.227Z,19.13
2023-10-10T08:38:23.259Z,18.99
2023-10-10T08:41:13.837Z,18.60
2023-10-10T08:44:05.432Z,18.67
2023-10-10T08:47:00.949Z,19.27
2023-10-10T08:49:53.762Z,18.94
2023-10-10T08:52:44.001Z,19.56
2023-10-10T08:55:37.986Z,19.05
2023-10-10T08:58:32.784Z,19.29
2023-10-10T09:01:23.570Z,18.06
2023-10-10T09:04:20.706Z,18.58
2023-10-10T09:07:21.682Z,18.77
2023-10-10T09:10:15.378Z,18.10
2023-10-10T09:13:08.384Z,18.42
2023-10-10T09:15:59.327Z,19.13
2023-10-10T09:19:10.381Z,18.73
2023-10-10T09:22:03.423Z,18.73
2023-10-10T09:24:57.469Z,18.34
2023-10-10T09:28:00.763Z,18.12
2023-10-10T09:31:00.942Z,18.44
2023-10-10T09:33:55.650Z,18.65
2023-10-10T09:36:54.937Z,18.47
2023-10-10T09:39:56.493Z,18.40
2023-10-10T09:43:13.356Z,18.52
2023-10-10T09:46:12.500Z,18.27
2023-10-10T09:49:15.529Z,18.33
2023-10-10T09:52:18.549Z,18.19
2023-10-10T09:55:31.105Z,18.68
2023-10-10T09:58:29.387Z,18.95
2023-10-10T10:01:25.120Z,18.77
2023-10-10T10:04:19.687Z,18.20
2023-10-10T10:07:25.246Z,17.75
2023-10-10T10:10:49.739Z,18.28
2023-10-10T10:14:21.951Z,18.25
2023-10-10T10:17:20.126Z,18.64
2023-10-10T10:20:21.889Z,18.39
2023-10-10T10:23:14.293Z,18.89
2023-10-10T10:26:12.171Z,18.77
2023-10-10T10:29:17.355Z,18.66
2023-10-10T10:32:12.032Z,18.82
2023-10-10T10:35:09.916Z,19.01
2023-10-10T10:38:01.680Z,19.53
2023-10-10T10:40:50.362Z,19.33
2023-10-10T10:43:44.039Z,18.73
2023-10-10T10:46:49.633Z,19.55
2023-10-10T10:49:42.092Z,18.95
2023-10-10T10:52:45.496Z,20.12
2023-10-10T10:55:41.267Z,19.14
2023-10-10T10:58:28.966Z,19.78
2023-10-10T11:01:21.528Z,20.00
2023-10-10T11:04:25.836Z,20.08
2023-10-10T11:07:28.087Z,19.86
2023-10-10T11:10:36.972Z,19.99
2023-10-10T11:13:29.530Z,19.17
2023-10-10T11:16:19.869Z,19.71
2023-10-10T11:19:27.048Z,19.91
2023-10-10T11:22:39.695Z,20.07
2023-10-10T11:25:42.854Z,20.14
2023-10-10T11:28:38.924Z,19.53
2023-10-10T11:31:30.796Z,19.52
2023-10-10T11:34:43.651Z,19.21
2023-10-10T11:37:44.001Z,19.55
2023-10-10T11:40:35.829Z,20.10
2023-10-10T11:43:28.890Z,20.33
2023-10-10T11:46:22.379Z,20.02
2023-10-10T11:49:18.329Z,19.87
2023-10-10T11:52:21.185Z,20.35
2023-10-10T11:55:15.530Z,20.08
2023-10-10T11:58:09.610Z,20.17
2023-10-10T12:01:05.684Z,20.42
2023-10-10T12:04:07.058Z,20.85
2023-10-10T12:07:01.377Z,20.44
2023-10-10T12:09:55.966Z,20.74
2023-10-10T12:12:50.432Z,20.67
2023-10-10T12:15:41.771Z,20.27
2023-10-10T12:18:34.262Z,20.27
2023-10-10T12:21:25.467Z,20.85
2023-10-10T12:24:16.060Z,20.16
2023-10-10T12:27:08.991Z,20.27
2023-10-10T12:30:01.941Z,20.71
2023-10-10T12:32:53.225Z,21.54
2023-10-10T12:35:45.316Z,21.77
2023-10-10T12:38:35.749Z,21.72
2023-10-10T12:41:26.044Z,21.33
2023-10-10T12:44:16.651Z,21.09
2023-10-10T12:47:11.508Z,20.85
2023-10-10T12:50:05.719Z,21.65
2023-10-10T12:53:08.797Z,21.24
2023-10-10T12:56:02.777Z,21.14
2023-10-10T12:59:03.041Z,22.02
2023-10-10T13:02:01.823Z,22.12
2023-10-10T13:04:55.907Z,22.12
2023-10-10T13:07:46.466Z,21.73
2023-10-10T13:10:38.881Z,21.25
2023-10-10T13:13:32.877Z,21.93
2023-10-10T13:16:26.942Z,21.83
2023-10-10T13:19:22.154Z,21.24
2023-10-10T13:22:22.512Z,21.84
2023-10-10T13:25:13.581Z,21.38
2023-10-10T13:28:10.501Z,21.58
2023-10-10T13:31:03.601Z,21.49
2023-10-10T13:33:54.617Z,21.21
2023-10-10T13:36:44.809Z,21.74
2023-10-10T13:39:45.210Z,22.44
2023-10-10T13:42:36.077Z,22.68
2023-10-10T13:45:29.567Z,21.68
2023-10-10T13:48:20.355Z,22.13
2023-10-10T13:51:11.423Z,21.81
2023-10-10T13:54:01.734Z,21.93
2023-10-10T13:56:55.368Z,22.08
2023-10-10T13:59:50.558Z,21.46
2023-10-10T14:02:41.180Z,22.34
2023-10-10T14:05:34.954Z,21.90
2023-10-10T14:08:28.195Z,21.91
2023-10-10T14:11:22.354Z,22.15
2023-10-10T14:14:15.506Z,21.99
2023-10-10T14:17:08.974Z,22.17
2023-10-10T14:20:00.749Z,21.95
2023-10-10T14:22:56.089Z,21.99
2023-10-10T14:25:49.048Z,21.81
2023-10-10T14:28:39.249Z,22.29
2023-10-10T14:31:32.561Z,21.90
2023-10-10T14:34:26.144Z,21.67
2023-10-10T14:37:35.997Z,21.69
2023-10-10T14:40:27.818Z,21.70
2023-10-10T14:43:18.061Z,21.41
2023-10-10T14:46:10.488Z,21.64
2023-10-10T14:49:18.484Z,21.39
2023-10-10T14:52:09.167Z,21.66
2023-10-10T14:55:06.463Z,21.37
2023-10-10T14:57:58.315Z,21.02
2023-10-10T15:00:49.966Z,21.12
2023-10-10T15:03:42.700Z,20.87
2023-10-10T15:06:36.557Z,20.85
2023-10-10T15:09:28.201Z,20.99
2023-10-10T15:12:18.577Z,21.15
2023-10-10T15:15:10.557Z,21.07
2023-10-10T15:18:00.900Z,21.13
2023-10-10T15:20:52.439Z,21.01
2023-10-10T15:23:47.928Z,21.11
2023-10-10T15:26:38.264Z,20.76
2023-10-10T15:29:29.005Z,21.00
2023-10-10T15:32:19.353Z,21.34
2023-10-10T15:35:10.754Z,21.47
2023-10-10T15:38:01.008Z,20.86
2023-10-10T15:40:53.871Z,20.45
2023-10-10T15:43:48.237Z,20.42
2023-10-10T15:46:43.915Z,20.60
2023-10-10T15:49:36.917Z,21.41
2023-10-10T15:52:28.224Z,20.88
2023-10-10T15:55:20.869Z,21.17
2023-10-10T15:58:13.715Z,20.61
2023-10-10T16:01:05.868Z,21.08
2023-10-10T16:03:56.705Z,20.70
2023-10-10T16:06:48.456Z,21.08
2023-10-10T16:09:38.770Z,21.35
2023-10-10T16:12:29.991Z,21.63
2023-10-10T16:15:30.316Z,21.79
2023-10-10T16:18:22.054Z,21.43
2023-10-10T16:21:12.418Z,20.91
2023-10-10T16:24:02.711Z,21.41
2023-10-10T16:26:59.707Z,21.50
2023-10-10T16:29:49.996Z,21.49
2023-10-10T16:32:44.702Z,21.10
2023-10-10T16:35:35.213Z,21.31
2023-10-10T16:38:25.731Z,20.15
2023-10-10T16:41:16.055Z,20.49
2023-10-10T16:44:06.640Z,21.20
2023-10-10T16:46:57.454Z,20.58
2023-10-10T16:49:51.235Z,20.74
2023-10-10T16:52:42.370Z,20.31
2023-10-10T16:55:34.237Z,20.70
2023-10-10T16:58:24.481Z,20.16
2023-10-10T17:01:17.235Z,20.35
2023-10-10T17:04:08.568Z,20.82
2023-10-10T17:07:01.510Z,21.07
2023-10-10T17:09:52.416Z,20.25
2023-10-10T17:12:43.553Z,20.04
2023-10-10T17:15:39.971Z,19.42
2023-10-10T17:18:32.608Z,19.84
2023-10-10T17:21:23.259Z,20.41
2023-10-10T17:24:16.972Z,20.60
2023-10-10T17:27:08.307Z,21.14
2023-10-10T17:29:58.895Z,20.18
2023-10-10T17:32:49.354Z,20.08
2023-10-10T17:35:42.725Z,19.50
2023-10-10T17:38:33.544Z,20.14
2023-10-10T17:41:26.392Z,20.74
2023-10-10T17:44:18.324Z,19.94
2023-10-10T17:47:08.822Z,20.32
2023-10-10T17:50:00.567Z,19.84
2023-10-10T17:52:50.839Z,19.94
2023-10-10T17:55:41.412Z,19.61
2023-10-10T17:58:34.261Z,19.99
2023-10-10T18:01:25.779Z,20.23
2023-10-10T18:04:16.733Z,19.50
2023-10-10T18:07:11.580Z,20.50
2023-10-10T18:10:01.963Z,20.88
2023-10-10T18:12:52.280Z,19.74
2023-10-10T18:15:47.764Z,19.83
2023-10-10T18:18:38.173Z,20.37
2023-10-10T18:21:31.266Z,20.23
2023-10-10T18:24:28.636Z,19.83
2023-10-10T18:27:20.107Z,20.08
2023-10-10T18:30:14.159Z,20.63
2023-10-10T18:33:09.375Z,20.44
2023-10-10T18:36:00.028Z,20.61
2023-10-10T18:38:51.325Z,20.33
2023-10-10T18:41:42.783Z,20.14
2023-10-10T18:44:33.287Z,19.71
2023-10-10T18:47:23.652Z,19.67
2023-10-10T18:50:20.046Z,19.97
2023-10-10T18:53:10.350Z,20.02
2023-10-10T18:56:00.909Z,19.67
2023-10-10T18:58:51.504Z,20.12
2023-10-10T19:01:45.539Z,19.71
2023-10-10T19:04:35.953Z,19.28
2023-10-10T19:07:28.877Z,18.62
2023-10-10T19:10:19.494Z,18.17
2023-10-10T19:13:10.541Z,19.29
2023-10-10T19:16:00.993Z,19.71
2023-10-10T19:18:51.470Z,19.63
2023-10-10T19:21:43.192Z,18.25
2023-10-10T19:24:40.016Z,19.35
2023-10-10T19:27:30.420Z,19.69
2023-10-10T19:30:20.872Z,19.69
2023-10-10T19:33:12.446Z,19.87
2023-10-10T19:36:09.404Z,19.44
2023-10-10T19:38:59.810Z,18.53
2023-10-10T19:41:54.290Z,18.83
2023-10-10T19:44:44.590Z,19.01
2023-10-10T19:47:36.889Z,18.82
2023-10-10T19:50:28.492Z,19.62
2023-10-10T19:53:20.516Z,19.12
2023-10-10T19:56:15.498Z,18.83
2023-10-10T19:59:08.662Z,19.26
2023-10-10T20:01:58.984Z,19.12
2023-10-10T20:04:49.450Z,19.65
2023-10-10T20:07:39.817Z,20.22
2023-10-10T20:10:30.278Z,20.37
2023-10-10T20:13:21.351Z,20.53
2023-10-10T20:16:18.829Z,20.49
2023-10-10T20:19:09.852Z,19.58
2023-10-10T20:22:00.153Z,19.05
2023-10-10T20:24:50.526Z,19.64
2023-10-10T20:27:40.734Z,19.67
2023-10-10T20:30:33.721Z,19.70
2023-10-10T20:33:26.925Z,19.69
2023-10-10T20:36:17.573Z,19.99
2023-10-10T20:39:19.729Z,19.99
2023-10-10T20:42:11.028Z,19.33
2023-10-10T20:45:01.331Z,19.48
2023-10-10T20:47:54.285Z,19.49
2023-10-10T20:50:47.260Z,18.39
2023-10-10T20:53:37.509Z,18.74
2023-10-10T20:56:28.857Z,18.80
2023-10-10T20:59:19.966Z,18.49
2023-10-10T21:02:12.944Z,18.75
2023-10-10T21:05:03.196Z,18.80
2023-10-10T21:07:58.389Z,18.72
2023-10-10T21:10:51.878Z,18.32
2023-10-10T21:13:42.269Z,17.97
2023-10-10T21:16:34.824Z,17.42
2023-10-10T21:19:27.242Z,17.87
2023-10-10T21:22:17.483Z,17.97
2023-10-10T21:25:12.206Z,18.07
2023-10-10T21:28:04.873Z,17.63
2023-10-10T21:30:55.350Z,17.61
2023-10-10T21:33:47.015Z,17.91
2023-10-10T21:36:37.428Z,17.95
2023-10-10T21:39:27.643Z,18.27
2023-10-10T21:42:23.769Z,17.80
2023-10-10T21:45:15.069Z,18.42
2023-10-10T21:48:06.398Z,17.74
2023-10-10T21:50:58.778Z,16.88
2023-10-10T21:53:50.693Z,17.51
2023-10-10T21:56:43.285Z,17.31
2023-10-10T21:59:39.110Z,17.86
2023-10-10T22:02:29.945Z,17.87
2023-10-10T22:05:22.884Z,17.96
2023-10-10T22:08:13.130Z,18.60
2023-10-10T22:11:03.621Z,18.76
2023-10-10T22:13:53.960Z,18.26
2023-10-10T22:16:48.223Z,18.49
2023-10-10T22:19:38.536Z,18.62
2023-10-10T22:22:28.767Z,17.85
2023-10-10T22:25:19.215Z,17.65
2023-10-10T22:28:11.262Z,17.80
2023-10-10T22:31:01.548Z,17.85
2023-10-10T22:33:55.107Z,16.97
2023-10-10T22:36:52.066Z,16.71
2023-10-10T22:39:48.824Z,17.21
2023-10-10T22:42:39.595Z,17.36
2023-10-10T22:45:29.811Z,17.60
2023-10-10T22:48:20.102Z,17.26
2023-10-10T22:51:14.550Z,17.64
2023-10-10T22:54:07.340Z,17.34
2023-10-10T22:56:57.890Z,17.95
2023-10-10T22:59:48.219Z,17.50
2023-10-10T23:02:38.541Z,17.99
2023-10-10T23:05:33.140Z,17.67
2023-10-10T23:08:26.416Z,18.07
2023-10-10T23:11:18.328Z,18.24
2023-10-10T23:14:11.128Z,17.45
2023-10-10T23:17:02.059Z,17.90
2023-10-10T23:19:52.224Z,17.60
2023-10-10T23:22:43.358Z,17.96
2023-10-10T23:25:36.165Z,17.80
2023-10-10T23:28:26.362Z,17.12
2023-10-10T23:31:17.713Z,16.42
2023-10-10T23:34:09.407Z,16.47
2023-10-10T23:37:00.303Z,17.96
2023-10-10T23:39:52.625Z,17.82
2023-10-10T23:42:50.716Z,18.40
2023-10-10T23:45:43.640Z,18.25
2023-10-10T23:48:36.205Z,18.19
2023-10-10T23:51:28.169Z,18.00
2023-10-10T23:54:18.518Z,18.27
2023-10-10T23:57:08.787Z,18.09
